Time;durP1;ratioP1;P1;durP2;ratioP2;P2;SDS_P1;SDS_P2;PMS_P1;PMS_P2;Temp;Humidity;BMP_temperature;BMP_pressure;BME280_temperature;BME280_humidity;BME280_pressure;Samples;Min_cycle;Max_cycle;Signal;HPM_P1;HPM_P2
2021/11/13 00:00:11;;;;;;;43.22;21.75;;;;;;;-142.75;100.00;76967.94;5012109;28;20060;-65
2021/11/13 00:02:37;;;;;;;45.30;21.38;;;;;;;-142.75;100.00;76965.97;5029860;28;20080;-66
2021/11/13 00:05:03;;;;;;;38.10;21.02;;;;;;;-142.75;100.00;76954.16;5030528;28;20029;-67
2021/11/13 00:07:29;;;;;;;36.65;20.75;;;;;;;-142.75;100.00;76950.22;5012758;28;20025;-66
2021/11/13 00:09:54;;;;;;;41.13;22.23;;;;;;;-142.75;100.00;76954.16;5029994;28;20032;-67
2021/11/13 00:12:20;;;;;;;46.53;21.77;;;;;;;-142.75;100.00;76950.22;5012783;28;20284;-67
2021/11/13 00:14:46;;;;;;;44.28;21.63;;;;;;;-142.75;100.00;76952.19;5030460;28;20021;-66
2021/11/13 00:17:12;;;;;;;43.15;21.25;;;;;;;-142.75;100.00;76946.28;5012591;28;20434;-65
2021/11/13 00:19:38;;;;;;;38.45;20.13;;;;;;;-142.75;100.00;76958.09;5030058;28;20033;-67
2021/11/13 00:22:04;;;;;;;;;;;;;;;-142.75;100.00;76944.31;5030738;28;20026;-67
2021/11/13 00:24:30;;;;;;;40.28;22.10;;;;;;;-142.75;100.00;76948.25;5030244;28;20298;-67
2021/11/13 00:26:55;;;;;;;41.28;21.98;;;;;;;-142.75;100.00;76956.13;5030353;28;20029;-67
2021/11/13 00:29:20;;;;;;;39.90;21.75;;;;;;;-142.75;100.00;76952.19;5013573;28;20046;-66
2021/11/13 00:31:46;;;;;;;39.13;22.20;;;;;;;-142.75;100.00;76948.25;5013218;28;20486;-67
2021/11/13 00:34:11;;;;;;;48.28;22.42;;;;;;;-142.75;100.00;76962.03;5031867;28;20094;-65
2021/11/13 00:36:36;;;;;;;47.90;21.98;;;;;;;-142.75;100.00;76944.31;5030976;28;20056;-65
2021/11/13 00:39:03;;;;;;;42.20;23.67;;;;;;;-142.75;100.00;76944.31;5052592;22;20418;-69
2021/11/13 00:41:28;;;;;;;46.17;23.10;;;;;;;-142.75;100.00;76944.31;5041797;28;20390;-68
2021/11/13 00:43:54;;;;;;;46.90;25.93;;;;;;;-142.75;100.00;76936.44;5033696;28;20025;-68
2021/11/13 00:46:19;;;;;;;47.08;23.88;;;;;;;-142.75;100.00;76938.41;5040210;28;20279;-73
2021/11/13 00:48:44;;;;;;;46.17;23.55;;;;;;;-142.75;100.00;76920.69;5051078;28;20620;-69
2021/11/13 00:51:10;;;;;;;44.03;24.37;;;;;;;-142.75;100.00;76920.69;5048868;28;20032;-69
2021/11/13 00:53:35;;;;;;;44.78;24.27;;;;;;;-142.75;100.00;76918.72;5026535;28;20268;-71
2021/11/13 00:56:01;;;;;;;48.42;25.00;;;;;;;-142.75;100.00;76920.69;5038409;28;20018;-69
2021/11/13 00:58:27;;;;;;;45.28;23.60;;;;;;;-142.75;100.00;76904.94;5036921;28;20510;-69
2021/11/13 01:00:53;;;;;;;40.00;23.13;;;;;;;-142.75;100.00;76895.09;5019178;28;20102;-70
2021/11/13 01:03:18;;;;;;;40.95;23.38;;;;;;;-142.75;100.00;76899.03;5040716;28;20040;-69
2021/11/13 01:05:44;;;;;;;43.75;23.48;;;;;;;-142.75;100.00;76901.00;5036226;28;20498;-70
2021/11/13 01:08:09;;;;;;;40.13;22.15;;;;;;;-142.75;100.00;76908.88;5021204;28;20638;-68
2021/11/13 01:10:35;;;;;;;46.58;24.00;;;;;;;-142.75;100.00;76893.13;5044690;28;20136;-69
2021/11/13 01:13:01;;;;;;;42.38;23.63;;;;;;;-142.75;100.00;76887.22;5024488;28;20028;-70
2021/11/13 01:15:27;;;;;;;42.20;24.73;;;;;;;-142.75;100.00;76875.41;5042756;28;20025;-70
2021/11/13 01:17:52;;;;;;;39.17;22.65;;;;;;;-142.75;100.00;76879.34;5030953;28;20540;-69
2021/11/13 01:20:18;;;;;;;42.13;23.20;;;;;;;-142.75;100.00;76871.47;5043630;28;20028;-69
2021/11/13 01:22:44;;;;;;;41.30;22.85;;;;;;;-142.75;100.00;76877.38;5040848;28;20510;-69
2021/11/13 01:25:10;;;;;;;37.60;21.90;;;;;;;-142.75;100.00;76857.69;5043525;28;20029;-71
2021/11/13 01:27:35;;;;;;;35.60;20.80;;;;;;;-142.75;100.00;76851.78;5038180;28;20079;-71
2021/11/13 01:30:03;;;;;;;35.83;21.48;;;;;;;-142.75;100.00;76839.97;5040425;28;20033;-70
2021/11/13 01:32:28;;;;;;;39.05;22.25;;;;;;;-142.75;100.00;76832.09;5020178;28;20052;-71
2021/11/13 01:34:53;;;;;;;38.25;20.98;;;;;;;-142.75;100.00;76822.25;5042001;28;20021;-69
2021/11/13 01:37:19;;;;;;;36.42;20.88;;;;;;;-142.75;100.00;76830.13;5043822;28;20052;-69
2021/11/13 01:39:44;;;;;;;36.08;21.45;;;;;;;-142.75;100.00;76818.31;5028875;28;20367;-69
2021/11/13 01:42:09;;;;;;;38.95;22.00;;;;;;;-142.75;100.00;76828.16;5040977;28;20024;-68
2021/11/13 01:44:35;;;;;;;40.80;22.08;;;;;;;-142.75;100.00;76830.13;5022045;28;20033;-70
2021/11/13 01:47:01;;;;;;;31.60;19.95;;;;;;;-142.75;100.00;76816.34;5037749;28;20116;-69
2021/11/13 01:49:26;;;;;;;37.05;19.90;;;;;;;-142.75;100.00;76818.31;5043499;28;20029;-70
2021/11/13 01:51:52;;;;;;;36.45;19.30;;;;;;;-142.75;100.00;76814.38;5044048;28;20056;-70
2021/11/13 01:54:19;;;;;;;36.97;19.15;;;;;;;-142.75;100.00;76802.56;5036402;28;20037;-69
2021/11/13 01:56:47;;;;;;;32.50;17.52;;;;;;;-142.75;100.00;76802.56;5037524;28;20025;-69
2021/11/13 01:59:12;;;;;;;29.48;17.40;;;;;;;-142.75;100.00;76800.63;5044096;28;20048;-69
2021/11/13 02:01:38;;;;;;;28.08;17.05;;;;;;;-142.75;100.00;76786.84;5038644;28;20434;-70
2021/11/13 02:04:04;;;;;;;27.55;15.90;;;;;;;-142.75;100.00;76786.84;5023165;28;20027;-69
2021/11/13 02:06:30;;;;;;;26.45;16.27;;;;;;;-142.75;100.00;76782.91;5037289;28;20446;-70
2021/11/13 02:08:56;;;;;;;31.33;15.63;;;;;;;-142.75;100.00;76771.09;5039414;28;20028;-69
2021/11/13 02:11:24;;;;;;;32.40;16.05;;;;;;;-142.75;100.00;76759.28;5040986;28;20025;-68
2021/11/13 02:13:51;;;;;;;28.63;15.90;;;;;;;-142.75;100.00;76763.22;5038566;28;20021;-69
2021/11/13 02:16:17;;;;;;;34.25;17.15;;;;;;;-142.75;100.00;76769.13;5042412;28;20029;-69
2021/11/13 02:18:44;;;;;;;27.55;16.83;;;;;;;-142.75;100.00;76751.41;5043142;28;20533;-69
2021/11/13 02:21:10;;;;;;;29.58;15.73;;;;;;;-142.75;100.00;76737.63;5025093;28;20070;-69
2021/11/13 02:23:36;;;;;;;;;;;;;;;-142.75;100.00;76739.59;5040374;28;20025;-70
2021/11/13 02:26:03;;;;;;;33.88;16.65;;;;;;;-142.75;100.00;76745.50;5040309;28;19917;-69
2021/11/13 02:28:28;;;;;;;30.13;15.63;;;;;;;-142.75;100.00;76737.63;5040085;28;20025;-69
2021/11/13 02:30:57;;;;;;;26.55;15.02;;;;;;;-142.75;100.00;76743.53;5036093;28;20018;-70
2021/11/13 02:33:23;;;;;;;32.05;15.73;;;;;;;-142.75;100.00;76737.63;5042377;28;20036;-71
2021/11/13 02:35:49;;;;;;;;;;;;;;;-142.75;100.00;76743.53;5041136;28;20029;-73
2021/11/13 02:38:21;;;;;;;32.85;16.70;;;;;;;-142.75;100.00;76767.16;5027269;28;19923;-69
2021/11/13 02:40:49;;;;;;;32.42;15.70;;;;;;;-142.75;100.00;76751.41;5035915;28;20025;-70
2021/11/13 02:43:16;;;;;;;28.20;14.90;;;;;;;-142.75;100.00;76747.47;5037362;28;20470;-69
2021/11/13 02:45:43;;;;;;;27.77;14.48;;;;;;;-142.75;100.00;76731.72;5039632;28;20030;-70
2021/11/13 02:48:09;;;;;;;30.38;15.82;;;;;;;-142.75;100.00;76717.94;5040072;28;20032;-69
2021/11/13 02:50:35;;;;;;;25.60;14.70;;;;;;;-142.75;100.00;76735.66;5036569;28;20040;-70
2021/11/13 02:53:09;;;;;;;21.77;14.75;;;;;;;-142.75;100.00;76739.59;5042641;28;20025;-69
2021/11/13 02:55:34;;;;;;;29.70;15.38;;;;;;;-142.75;100.00;76735.66;5020466;28;20103;-69
2021/11/13 02:57:59;;;;;;;31.30;15.32;;;;;;;-142.75;100.00;76737.63;5038136;28;20030;-69
2021/11/13 03:00:28;;;;;;;25.42;15.13;;;;;;;-142.75;100.00;76735.66;5017959;28;20116;-69
2021/11/13 03:02:54;;;;;;;28.08;15.48;;;;;;;-142.75;100.00;76741.56;5025801;28;20045;-69
2021/11/13 03:05:27;;;;;;;29.40;15.52;;;;;;;-142.75;100.00;76731.72;5037625;28;20025;-73
2021/11/13 03:07:55;;;;;;;28.20;14.82;;;;;;;-142.75;100.00;76712.03;5023664;28;20052;-69
2021/11/13 03:10:22;;;;;;;26.58;13.75;;;;;;;-142.75;100.00;76700.22;5016280;28;20459;-68
2021/11/13 03:12:48;;;;;;;31.00;14.70;;;;;;;-142.75;100.00;76708.09;5039886;28;20037;-69
2021/11/13 03:15:16;;;;;;;28.55;14.77;;;;;;;-142.75;100.00;76708.09;5040449;28;20025;-70
2021/11/13 03:17:41;;;;;;;27.75;14.52;;;;;;;-142.75;100.00;76698.25;5031155;28;20430;-69
2021/11/13 03:20:21;;;;;;;28.65;13.93;;;;;;;-142.75;100.00;76710.06;5038064;28;20021;-70
2021/11/13 03:22:47;;;;;;;30.42;13.63;;;;;;;-142.75;100.00;76712.03;5024254;28;20033;-70
2021/11/13 03:25:16;;;;;;;24.80;13.43;;;;;;;-142.75;100.00;76704.16;5036255;28;20040;-69
2021/11/13 03:27:46;;;;;;;24.23;14.30;;;;;;;-142.75;100.00;76710.06;5040729;28;20039;-68
2021/11/13 03:30:13;;;;;;;24.50;14.75;;;;;;;-142.75;100.00;76715.97;5021261;28;20033;-69
2021/11/13 03:32:38;;;;;;;;;;;;;;;-142.75;100.00;76715.97;5039971;28;20024;-70
2021/11/13 03:35:05;;;;;;;30.73;14.73;;;;;;;-142.75;100.00;76712.03;5020692;28;20298;-69
2021/11/13 03:37:31;;;;;;;24.52;14.30;;;;;;;-142.75;100.00;76725.81;5041194;28;20434;-69
2021/11/13 03:39:57;;;;;;;27.70;14.05;;;;;;;-142.75;100.00;76737.63;5041317;28;20098;-69
2021/11/13 03:42:24;;;;;;;;;;;;;;;-142.75;100.00;76733.69;5024466;28;20025;-70
2021/11/13 03:44:51;;;;;;;30.02;14.98;;;;;;;-142.75;100.00;76731.72;5019738;28;20355;-69
2021/11/13 03:47:16;;;;;;;27.63;15.57;;;;;;;-142.75;100.00;76729.75;5020208;28;20029;-69
2021/11/13 03:49:42;;;;;;;29.65;15.10;;;;;;;-142.75;100.00;76727.78;5040831;28;20434;-69
2021/11/13 03:52:07;;;;;;;31.60;14.95;;;;;;;-142.75;100.00;76737.63;5042856;28;20039;-69
2021/11/13 03:54:33;;;;;;;27.60;14.88;;;;;;;-142.75;100.00;76739.59;5040628;28;20033;-69
2021/11/13 03:56:59;;;;;;;;;;;;;;;-142.75;100.00;76727.78;5043959;28;20558;-69
2021/11/13 03:59:26;;;;;;;27.70;13.57;;;;;;;-142.75;100.00;76735.66;5038627;28;20023;-71
2021/11/13 04:01:52;;;;;;;25.35;12.75;;;;;;;-142.75;100.00;76715.97;5051178;28;20521;-69
2021/11/13 04:04:17;;;;;;;25.52;11.40;;;;;;;-142.75;100.00;76712.03;5042000;28;20024;-69
2021/11/13 04:06:42;;;;;;;20.00;10.73;;;;;;;-142.75;100.00;76714.00;5047409;28;20500;-70
2021/11/13 04:09:08;;;;;;;20.27;10.27;;;;;;;-142.75;100.00;76708.09;5024793;28;20559;-69
2021/11/13 04:11:33;;;;;;;23.50;9.77;;;;;;;-142.75;100.00;76714.00;5023952;28;20639;-70
2021/11/13 04:13:58;;;;;;;17.00;8.85;;;;;;;-142.75;100.00;76717.94;5021620;28;20479;-70
2021/11/13 04:16:23;;;;;;;18.75;8.65;;;;;;;-142.75;100.00;76733.69;5020453;28;20115;-69
2021/11/13 04:18:51;;;;;;;20.27;5.50;;;;;;;-142.75;100.00;76741.56;5041954;28;20021;-68
2021/11/13 04:21:16;;;;;;;14.02;5.70;;;;;;;-142.75;100.00;76733.69;5020343;28;20037;-70
2021/11/13 04:23:43;;;;;;;13.52;5.15;;;;;;;-142.75;100.00;76715.97;5043134;28;20026;-71
2021/11/13 04:26:08;;;;;;;11.93;4.50;;;;;;;-142.75;100.00;76706.13;5044276;28;20048;-69
2021/11/13 04:28:34;;;;;;;14.85;4.65;;;;;;;-142.75;100.00;76704.16;5040023;28;20024;-72
2021/11/13 04:30:59;;;;;;;11.52;4.63;;;;;;;-142.75;100.00;76700.22;5040298;28;20485;-69
2021/11/13 04:33:26;;;;;;;10.07;4.88;;;;;;;-142.75;100.00;76682.50;5040557;28;20581;-69
2021/11/13 04:38:29;;;;;;;12.85;4.47;;;;;;;-142.75;100.00;76686.44;5037830;28;20502;-69
2021/11/13 04:40:54;;;;;;;9.73;4.28;;;;;;;-142.75;100.00;76690.38;5043057;28;20437;-69
2021/11/13 04:43:19;;;;;;;13.48;4.32;;;;;;;-142.75;100.00;76696.28;5041225;28;20033;-69
2021/11/13 04:45:45;;;;;;;10.32;5.20;;;;;;;-142.75;100.00;76684.47;5041419;28;20032;-69
2021/11/13 04:48:11;;;;;;;11.75;4.68;;;;;;;-142.75;100.00;76692.34;5034347;28;20033;-67
2021/11/13 04:50:36;;;;;;;11.85;5.45;;;;;;;-142.75;100.00;76696.28;5038887;28;20035;-69
2021/11/13 04:53:05;;;;;;;13.00;4.50;;;;;;;-142.75;100.00;76698.25;5043742;28;20108;-69
2021/11/13 04:55:31;;;;;;;15.68;4.70;;;;;;;-142.75;100.00;76702.19;5046739;28;20021;-70
2021/11/13 04:57:56;;;;;;;12.75;4.60;;;;;;;-142.75;100.00;76696.28;5031248;28;20108;-70
2021/11/13 05:00:25;;;;;;;11.85;4.10;;;;;;;-142.75;100.00;76704.16;5031277;28;20082;-69
2021/11/13 05:02:51;;;;;;;12.30;3.80;;;;;;;-142.75;100.00;76704.16;5035970;28;20082;-68
2021/11/13 05:05:17;;;;;;;18.42;4.07;;;;;;;-142.75;100.00;76700.22;5038538;28;20029;-69
2021/11/13 05:07:43;;;;;;;14.43;3.60;;;;;;;-142.75;100.00;76710.06;5034140;28;20506;-69
2021/11/13 05:10:09;;;;;;;10.75;3.10;;;;;;;-142.75;100.00;76708.09;5026501;28;20044;-69
2021/11/13 05:12:34;;;;;;;11.43;3.25;;;;;;;-142.75;100.00;76708.09;5047750;28;20067;-69
2021/11/13 05:15:00;;;;;;;12.10;3.20;;;;;;;-142.75;100.00;76704.16;5022404;28;20024;-70
2021/11/13 05:17:25;;;;;;;13.10;2.78;;;;;;;-142.75;100.00;76731.72;5041132;28;20051;-69
2021/11/13 05:19:51;;;;;;;14.98;2.55;;;;;;;-142.75;100.00;76727.78;5028208;28;20402;-69
2021/11/13 05:22:16;;;;;;;10.80;2.58;;;;;;;-142.75;100.00;76715.97;5036603;28;20513;-70
2021/11/13 05:24:41;;;;;;;14.18;2.33;;;;;;;-142.75;100.00;76708.09;5039841;28;20017;-69
2021/11/13 05:27:07;;;;;;;8.70;2.33;;;;;;;-142.75;100.00;76715.97;5043605;28;20029;-69
2021/11/13 05:29:32;;;;;;;6.97;1.90;;;;;;;-142.75;100.00;76715.97;5040302;28;20042;-69
2021/11/13 05:31:57;;;;;;;6.03;1.75;;;;;;;-142.75;100.00;76704.16;5035558;28;20021;-69
2021/11/13 05:34:23;;;;;;;6.85;1.60;;;;;;;-142.75;100.00;76696.28;5023995;28;20059;-70
2021/11/13 05:36:48;;;;;;;9.80;2.35;;;;;;;-142.75;100.00;76708.09;5027194;28;20021;-72
2021/11/13 05:39:14;;;;;;;;;;;;;;;-142.75;100.00;76706.13;5042719;28;20384;-70
2021/11/13 05:41:40;;;;;;;9.73;1.83;;;;;;;-142.75;100.00;76696.28;5036652;28;20450;-71
2021/11/13 05:44:05;;;;;;;;;;;;;;;-142.75;100.00;76702.19;5022702;28;20025;-70
2021/11/13 05:46:31;;;;;;;10.35;1.60;;;;;;;-142.75;100.00;76696.28;5040064;28;19962;-69
2021/11/13 05:48:56;;;;;;;10.02;1.95;;;;;;;-142.75;100.00;76704.16;5016929;28;20360;-70
2021/11/13 05:51:21;;;;;;;9.45;1.92;;;;;;;-142.75;100.00;76712.03;5042238;28;20372;-68
2021/11/13 05:53:47;;;;;;;10.32;1.60;;;;;;;-142.75;100.00;76714.00;5026238;28;20133;-69
2021/11/13 05:56:12;;;;;;;7.82;1.63;;;;;;;-142.75;100.00;76723.84;5041346;28;20017;-69
2021/11/13 05:58:37;;;;;;;6.90;1.75;;;;;;;-142.75;100.00;76727.78;5039226;28;20025;-69
2021/11/13 06:01:03;;;;;;;10.40;1.30;;;;;;;-142.75;100.00;76719.91;5038329;28;20033;-71
2021/11/13 06:03:29;;;;;;;6.47;1.45;;;;;;;-142.75;100.00;76727.78;5035612;28;20029;-69
2021/11/13 06:05:54;;;;;;;15.18;2.05;;;;;;;-142.75;100.00;76723.84;5037055;28;20029;-69
2021/11/13 06:08:20;;;;;;;9.00;2.00;;;;;;;-142.75;100.00;76723.84;5037120;28;20102;-68
2021/11/13 06:10:45;;;;;;;12.23;2.35;;;;;;;-142.75;100.00;76737.63;5037369;28;20036;-69
2021/11/13 06:13:10;;;;;;;10.73;2.25;;;;;;;-142.75;100.00;76749.44;5048100;28;20160;-68
2021/11/13 06:15:36;;;;;;;9.50;1.52;;;;;;;-142.75;100.00;76735.66;5024267;28;20032;-71
2021/11/13 06:18:01;;;;;;;6.75;1.88;;;;;;;-142.75;100.00;76747.47;5036929;28;20048;-69
2021/11/13 06:20:26;;;;;;;6.68;1.83;;;;;;;-142.75;100.00;76747.47;5029089;28;20028;-69
2021/11/13 06:22:52;;;;;;;7.88;1.50;;;;;;;-142.75;100.00;76743.53;5038194;28;20484;-69
2021/11/13 06:25:18;;;;;;;6.15;2.17;;;;;;;-142.75;100.00;76739.59;5042389;28;20025;-69
2021/11/13 06:27:44;;;;;;;8.68;2.15;;;;;;;-142.75;100.00;76755.34;5039494;28;20020;-70
2021/11/13 06:30:11;;;;;;;5.45;1.67;;;;;;;-142.75;100.00;76759.28;5034481;28;20025;-70
2021/11/13 06:32:37;;;;;;;11.73;2.08;;;;;;;-142.75;100.00;76759.28;5039066;28;20040;-69
2021/11/13 06:35:03;;;;;;;;;;;;;;;-142.75;100.00;76743.53;5042446;28;20057;-70
2021/11/13 06:37:29;;;;;;;8.02;1.60;;;;;;;-142.75;100.00;76733.69;5036662;28;20006;-69
2021/11/13 06:39:55;;;;;;;8.43;1.52;;;;;;;-142.75;100.00;76725.81;5049151;22;20041;-66
2021/11/13 06:42:21;;;;;;;4.30;1.55;;;;;;;-142.75;100.00;76733.69;5029240;28;20056;-66
2021/11/13 06:44:46;;;;;;;6.95;1.90;;;;;;;-142.75;100.00;76735.66;5029443;28;20423;-65
2021/11/13 06:47:11;;;;;;;7.88;2.25;;;;;;;-142.75;100.00;76759.28;5011488;28;20025;-65
2021/11/13 06:49:36;;;;;;;7.85;1.73;;;;;;;-142.75;100.00;76763.22;5028744;28;20025;-65
2021/11/13 06:52:02;;;;;;;9.23;1.80;;;;;;;-142.75;100.00;76759.28;5011212;28;20402;-65
2021/11/13 06:54:27;;;;;;;4.25;1.48;;;;;;;-142.75;100.00;76757.31;5029120;28;20040;-65
2021/11/13 06:56:53;;;;;;;8.40;1.90;;;;;;;-142.75;100.00;76759.28;5029092;28;20029;-65
2021/11/13 06:59:20;;;;;;;8.48;1.90;;;;;;;-142.75;100.00;76767.16;5029357;28;20025;-65
2021/11/13 07:01:45;;;;;;;8.23;2.28;;;;;;;-142.75;100.00;76767.16;5010747;28;20112;-66
2021/11/13 07:04:10;;;;;;;6.60;1.60;;;;;;;-142.75;100.00;76771.09;5010491;28;20789;-65
2021/11/13 07:06:36;;;;;;;5.75;1.70;;;;;;;-142.75;100.00;76775.03;5028924;28;20467;-65
2021/11/13 07:09:02;;;;;;;4.15;1.40;;;;;;;-142.75;100.00;76775.03;5028985;28;20025;-65
2021/11/13 07:11:28;;;;;;;9.13;1.80;;;;;;;-142.75;100.00;76769.13;5028050;28;20075;-65
2021/11/13 07:13:53;;;;;;;10.95;2.13;;;;;;;-142.75;100.00;76780.94;5029056;28;20033;-65
2021/11/13 07:16:18;;;;;;;5.78;1.40;;;;;;;-142.75;100.00;76771.09;5029238;28;20029;-66
2021/11/13 07:18:44;;;;;;;;;;;;;;;-142.75;100.00;76775.03;5029393;28;20049;-65
2021/11/13 07:21:09;;;;;;;9.40;1.73;;;;;;;-142.75;100.00;76775.03;5028090;28;20359;-66
2021/11/13 07:23:35;;;;;;;6.43;1.70;;;;;;;-142.75;100.00;76771.09;5028850;28;20399;-66
2021/11/13 07:26:03;;;;;;;8.45;2.63;;;;;;;-142.75;100.00;76782.91;5032083;28;20033;-66
2021/11/13 07:28:39;;;;;;;8.57;2.30;;;;;;;-142.75;100.00;76775.03;5032719;28;20029;-65
2021/11/13 07:31:10;;;;;;;7.22;1.73;;;;;;;-142.75;100.00;76771.09;5031724;28;20091;-65
2021/11/13 07:33:36;;;;;;;9.55;2.03;;;;;;;-142.75;100.00;76771.09;5032655;28;20763;-65
2021/11/13 07:36:02;;;;;;;5.40;1.75;;;;;;;-142.75;100.00;76773.06;5032521;28;20029;-65
2021/11/13 07:38:27;;;;;;;12.85;2.17;;;;;;;-142.75;100.00;76775.03;5032573;28;20021;-65
2021/11/13 07:40:53;;;;;;;6.55;2.17;;;;;;;-142.75;100.00;76771.09;5031574;28;20483;-65
2021/11/13 07:43:18;;;;;;;7.13;2.17;;;;;;;-142.75;100.00;76759.28;5032781;28;20062;-65
2021/11/13 07:45:44;;;;;;;7.10;1.95;;;;;;;-142.75;100.00;76757.31;5032180;28;20687;-65
2021/11/13 07:48:09;;;;;;;8.55;1.98;;;;;;;-142.75;100.00;76743.53;5032355;28;20522;-65
2021/11/13 07:50:36;;;;;;;8.65;2.40;;;;;;;-142.75;100.00;76739.59;5031510;28;20060;-65
2021/11/13 07:53:06;;;;;;;6.25;1.80;;;;;;;-142.75;100.00;76729.75;5032279;28;20410;-65
2021/11/13 07:55:32;;;;;;;5.65;1.83;;;;;;;-142.75;100.00;76735.66;5032223;28;20063;-66
2021/11/13 07:57:57;;;;;;;5.85;1.98;;;;;;;-142.75;100.00;76735.66;5032044;28;20033;-65
2021/11/13 08:00:23;;;;;;;8.52;1.95;;;;;;;-142.75;100.00;76737.63;5031267;28;20499;-65
2021/11/13 08:02:49;;;;;;;11.50;1.98;;;;;;;-142.75;100.00;76741.56;5032147;28;20388;-65
2021/11/13 08:05:15;;;;;;;9.43;2.60;;;;;;;-142.75;100.00;76739.59;5032386;28;20048;-65
2021/11/13 08:07:42;;;;;;;7.65;2.00;;;;;;;-142.75;100.00;76739.59;5031907;28;20036;-67
2021/11/13 08:10:08;;;;;;;9.23;2.00;;;;;;;-142.75;100.00;76735.66;5031280;28;20479;-67
2021/11/13 08:12:34;;;;;;;7.90;2.08;;;;;;;-142.75;100.00;76735.66;5031741;28;20041;-67
2021/11/13 08:14:59;;;;;;;4.70;1.92;;;;;;;-142.75;100.00;76729.75;5031830;28;20044;-67
2021/11/13 08:17:25;;;;;;;8.98;2.15;;;;;;;-142.75;100.00;76731.72;5031846;28;20021;-66
2021/11/13 08:19:50;;;;;;;;;;;;;;;-142.75;100.00;76735.66;5031337;28;20478;-66
2021/11/13 08:22:15;;;;;;;8.20;2.15;;;;;;;-142.75;100.00;76759.28;5032027;28;19995;-64
2021/11/13 08:24:41;;;;;;;10.10;2.80;;;;;;;-142.75;100.00;76751.41;5031591;28;20031;-64
2021/11/13 08:27:07;;;;;;;5.60;3.22;;;;;;;-142.75;100.00;76765.19;5031530;28;20021;-65
2021/11/13 08:29:33;;;;;;;;;;;;;;;-142.75;100.00;76761.25;5032026;28;20449;-64
2021/11/13 08:31:58;;;;;;;9.43;3.42;;;;;;;-142.75;100.00;76767.16;5030792;28;20004;-64
2021/11/13 08:34:24;;;;;;;12.43;3.80;;;;;;;-142.75;100.00;76763.22;5031349;28;20116;-64
2021/11/13 08:36:49;;;;;;;8.43;4.03;;;;;;;-142.75;100.00;76761.25;5030099;28;20056;-64
2021/11/13 08:39:15;;;;;;;12.00;4.50;;;;;;;-142.75;100.00;76771.09;5031402;28;20056;-64
2021/11/13 08:41:40;;;;;;;10.57;4.15;;;;;;;-142.75;100.00;76761.25;5030537;28;20040;-66
2021/11/13 08:44:05;;;;;;;10.45;4.85;;;;;;;-142.75;100.00;76755.34;5031180;28;20627;-63
2021/11/13 08:46:32;;;;;;;13.32;4.53;;;;;;;-142.75;100.00;76735.66;5031046;28;20083;-65
2021/11/13 08:48:58;;;;;;;11.98;4.43;;;;;;;-142.75;100.00;76739.59;5030782;28;20032;-64
2021/11/13 08:51:23;;;;;;;10.88;4.72;;;;;;;-142.75;100.00;76739.59;5030351;28;20033;-64
2021/11/13 08:53:54;;;;;;;10.35;3.50;;;;;;;-142.75;100.00;76729.75;5030943;28;20048;-65
2021/11/13 08:56:23;;;;;;;6.85;2.70;;;;;;;-142.75;100.00;76719.91;5031187;28;20506;-65
2021/11/13 08:58:54;;;;;;;10.90;2.80;;;;;;;-142.75;100.00;76670.69;5029544;28;20029;-65
2021/11/13 09:01:21;;;;;;;6.65;2.70;;;;;;;-142.75;100.00;76617.53;5049249;28;20024;-65
2021/11/13 09:03:47;;;;;;;7.35;2.13;;;;;;;-142.75;100.00;76593.91;5050278;28;20115;-64
2021/11/13 09:06:19;;;;;;;12.13;3.05;;;;;;;-142.75;100.00;76556.50;5048531;28;20447;-65
2021/11/13 09:08:47;;;;;;;5.65;1.85;;;;;;;-142.75;100.00;76536.84;5050036;28;20025;-65
2021/11/13 09:11:19;;;;;;;11.00;2.53;;;;;;;-142.75;100.00;76525.03;5048996;28;20541;-64
2021/11/13 09:13:45;;;;;;;7.32;2.33;;;;;;;-142.75;100.00;76507.31;5049741;28;20028;-65
2021/11/13 09:16:12;;;;;;;6.50;1.67;;;;;;;-142.75;100.00;76515.19;5031705;28;20061;-66
2021/11/13 09:18:39;;;;;;;6.78;1.70;;;;;;;-142.75;100.00;76536.84;5049527;28;20029;-65
2021/11/13 09:21:05;;;;;;;5.90;1.70;;;;;;;-142.75;100.00;76509.28;5048974;28;20025;-65
2021/11/13 09:23:31;;;;;;;6.10;1.90;;;;;;;-142.75;100.00;76505.34;5049383;28;20562;-65
2021/11/13 09:25:57;;;;;;;6.78;1.25;;;;;;;-142.75;100.00;76515.19;5049450;28;20044;-65
2021/11/13 09:28:22;;;;;;;;;;;;;;;-142.75;100.00;76513.22;5050012;28;20024;-65
2021/11/13 09:30:47;;;;;;;7.45;1.50;;;;;;;-142.75;100.00;76523.06;5049802;28;20357;-65
2021/11/13 09:33:14;;;;;;;4.15;1.13;;;;;;;-142.75;100.00;76477.78;5050142;28;20051;-65
2021/11/13 09:35:42;;;;;;;3.53;1.40;;;;;;;-142.75;100.00;76471.88;5050214;28;20037;-65
2021/11/13 09:38:08;;;;;;;7.68;1.33;;;;;;;-142.75;100.00;76464.00;5050140;28;20478;-65
2021/11/13 09:40:34;;;;;;;7.75;1.50;;;;;;;-142.75;100.00;76473.84;5049141;28;20036;-65
2021/11/13 09:43:03;;;;;;;4.85;1.25;;;;;;;-142.75;100.00;76467.94;5050355;28;20036;-66
2021/11/13 09:45:29;;;;;;;3.45;1.30;;;;;;;-142.75;100.00;76471.88;5050008;28;20021;-65
2021/11/13 09:47:57;;;;;;;3.30;1.00;;;;;;;-142.75;100.00;76489.59;5049544;28;20071;-65
2021/11/13 09:50:25;;;;;;;6.97;1.35;;;;;;;-142.75;100.00;76517.16;5049179;28;20547;-63
2021/11/13 09:52:51;;;;;;;5.18;1.05;;;;;;;-142.75;100.00;76554.53;5049708;28;20021;-63
2021/11/13 09:55:19;;;;;;;5.68;1.20;;;;;;;-142.75;100.00;76556.50;5050141;28;20447;-64
2021/11/13 09:57:45;;;;;;;4.85;1.23;;;;;;;-142.75;100.00;76562.41;5049814;28;20017;-65
2021/11/13 10:00:14;;;;;;;3.55;0.93;;;;;;;-142.75;100.00;76580.13;5048741;28;20437;-65
2021/11/13 10:02:41;;;;;;;6.22;1.05;;;;;;;-142.75;100.00;76601.78;5028573;28;20477;-63
2021/11/13 10:05:07;;;;;;;3.95;1.35;;;;;;;-142.75;100.00;76576.19;5027939;28;20136;-64
2021/11/13 10:07:33;;;;;;;7.50;1.45;;;;;;;-142.75;100.00;76599.81;5029745;28;20481;-65
2021/11/13 10:09:59;;;;;;;7.55;1.23;;;;;;;-142.75;100.00;76593.91;5028671;28;20697;-66
2021/11/13 10:12:39;;;;;;;4.25;1.15;;;;;;;-142.75;100.00;76613.59;5028507;28;20049;-66
2021/11/13 10:15:34;;;;;;;3.08;0.80;;;;;;;-142.75;100.00;76615.56;5027975;28;20029;-65
2021/11/13 10:18:07;;;;;;;3.10;0.70;;;;;;;-142.75;100.00;76637.22;5029048;28;20364;-65
2021/11/13 10:20:33;;;;;;;4.93;0.88;;;;;;;-142.75;100.00;76647.06;5028685;28;20430;-65
2021/11/13 10:22:59;;;;;;;9.05;1.10;;;;;;;-142.75;100.00;76645.09;5029378;28;20506;-65
2021/11/13 10:25:24;;;;;;;7.25;1.15;;;;;;;-142.75;100.00;76652.97;5029462;28;20033;-66
2021/11/13 10:28:10;;;;;;;2.85;0.70;;;;;;;-142.75;100.00;76643.13;5011775;28;20026;-65
2021/11/13 10:30:36;;;;;;;8.30;1.25;;;;;;;-142.75;100.00;76652.97;5028573;28;20045;-65
2021/11/13 10:33:01;;;;;;;5.18;1.08;;;;;;;-142.75;100.00;76652.97;5028041;28;20030;-65
2021/11/13 10:35:49;;;;;;;5.30;0.90;;;;;;;-142.75;100.00;76651.00;5029356;28;20411;-65
2021/11/13 10:38:21;;;;;;;5.20;1.35;;;;;;;-142.75;100.00;76651.00;5029568;28;20044;-65
2021/11/13 10:40:55;;;;;;;4.85;1.20;;;;;;;-142.75;100.00;76637.22;5028711;28;20029;-66
2021/11/13 10:43:32;;;;;;;5.43;1.17;;;;;;;-142.75;100.00;76617.53;5029310;28;20033;-66
2021/11/13 10:46:03;;;;;;;5.43;1.02;;;;;;;-142.75;100.00;76546.66;5010391;28;20109;-65
2021/11/13 10:48:29;;;;;;;6.18;1.40;;;;;;;-142.75;100.00;76538.78;5029416;28;20509;-65
2021/11/13 10:51:14;;;;;;;3.67;1.00;;;;;;;-142.75;100.00;76499.44;5028491;28;20026;-65
2021/11/13 10:53:40;;;;;;;5.88;0.80;;;;;;;-142.75;100.00;76448.25;5029322;28;20574;-66
2021/11/13 10:56:09;;;;;;;3.25;1.20;;;;;;;-142.75;100.00;76371.47;5029204;28;20104;-66
2021/11/13 10:58:39;;;;;;;4.22;1.02;;;;;;;-142.75;100.00;76300.63;5029265;28;20032;-66
2021/11/13 11:01:31;;;;;;;7.43;1.30;;;;;;;-142.75;100.00;76243.53;5031904;28;20029;-66
2021/11/13 11:04:05;;;;;;;8.88;1.33;;;;;;;-142.75;100.00;76194.34;5014825;28;20033;-67